• 1
  • 2
  • 1

 

 

 
NEU! ab. 1.4.
Nortel Info 128,740 MHz

WebCam

  
Kamera Halle
Kamera Vorfeld
Wetter EDDS

METAR

EDDS 201650Z 26005KT CAVOK 27/13 Q1017 NOSIG =
EDDS 201100Z 2012/2112 25004KT CAVOK BECMG 2108/2111 25010KT TEMPO 2111/2112 25015G30KT


TAF

EDDS 201100Z 2012/2112 25004KT CAVOK BECMG 2108/2111 25010KT TEMPO 2111/2112 25015G30KT =


SR/SS

05:05 / 17:24 UTC
(EDSO 20-09-2018)